createdAt,value
2023-04-05T00:00:40.737Z,101889.84
2023-04-05T00:03:10.830Z,101977.81
2023-04-05T00:05:41.371Z,101957.00
2023-04-05T00:08:18.529Z,101971.31
2023-04-05T00:10:48.244Z,101952.47
2023-04-05T00:13:17.959Z,101936.69
2023-04-05T00:15:47.860Z,101970.00
2023-04-05T00:18:22.444Z,101937.22
2023-04-05T00:20:52.734Z,101943.47
2023-04-05T00:23:26.740Z,101963.88
2023-04-05T00:25:56.452Z,101962.31
2023-04-05T00:28:26.340Z,101974.28
2023-04-05T00:30:56.149Z,101923.75
2023-04-05T00:33:25.858Z,101979.63
2023-04-05T00:35:55.922Z,101975.28
2023-04-05T00:38:28.286Z,101969.78
2023-04-05T00:40:58.014Z,101973.72
2023-04-05T00:43:27.802Z,101966.94
2023-04-05T00:45:57.783Z,101965.19
2023-04-05T00:48:27.831Z,101957.28
2023-04-05T00:50:58.003Z,101966.59
2023-04-05T00:53:31.893Z,101947.66
2023-04-05T00:56:01.646Z,101952.59
2023-04-05T00:58:32.098Z,101895.41
2023-04-05T01:01:07.641Z,101934.28
2023-04-05T01:03:39.059Z,101941.84
2023-04-05T01:06:20.175Z,101924.41
2023-04-05T01:09:03.566Z,101952.00
2023-04-05T01:11:35.109Z,101942.81
2023-04-05T01:14:05.355Z,101940.72
2023-04-05T01:16:35.107Z,101919.28
2023-04-05T01:19:05.028Z,101939.22
2023-04-05T01:22:14.468Z,101929.56
2023-04-05T01:25:06.917Z,101925.94
2023-04-05T01:27:58.997Z,101930.53
2023-04-05T01:30:37.934Z,101941.28
2023-04-05T01:33:17.332Z,101878.59
2023-04-05T01:35:53.954Z,101901.50
2023-04-05T01:38:28.105Z,101937.00
2023-04-05T01:41:00.838Z,101947.81
2023-04-05T01:43:32.080Z,101863.91
2023-04-05T01:46:06.638Z,101954.16
2023-04-05T01:48:38.250Z,101905.03
2023-04-05T01:51:11.637Z,101862.22
2023-04-05T01:53:44.865Z,101897.63
2023-04-05T01:56:18.571Z,101879.63
2023-04-05T01:58:49.817Z,101892.66
2023-04-05T02:01:26.723Z,101883.59
2023-04-05T02:04:01.000Z,101855.97
2023-04-05T02:06:34.189Z,101849.41
2023-04-05T02:09:07.677Z,101938.69
2023-04-05T02:11:40.097Z,101877.53
2023-04-05T02:14:12.058Z,101919.06
2023-04-05T02:16:47.341Z,101941.09
2023-04-05T02:19:23.729Z,101887.13
2023-04-05T02:21:56.902Z,101907.56
2023-04-05T02:24:29.633Z,101935.16
2023-04-05T02:27:02.952Z,101919.28
2023-04-05T02:29:37.417Z,101935.84
2023-04-05T02:32:13.896Z,101935.72
2023-04-05T02:34:47.272Z,101944.47
2023-04-05T02:37:20.990Z,101868.63
2023-04-05T02:39:55.956Z,101847.28
2023-04-05T04:00:57.755Z,101930.88
2023-04-05T05:09:57.393Z,101713.34
2023-04-05T05:13:15.370Z,101720.03
2023-04-05T05:16:22.768Z,101863.34
2023-04-05T05:19:28.662Z,101685.06
2023-04-05T05:22:57.765Z,101680.75
2023-04-05T05:26:08.134Z,101696.06
2023-04-05T05:29:26.957Z,101673.91
2023-04-05T05:32:31.391Z,101899.09
2023-04-05T05:35:14.981Z,101710.84
2023-04-05T05:37:47.869Z,101892.22
2023-04-05T05:40:17.623Z,101888.66
2023-04-05T05:42:49.978Z,101881.13
2023-04-05T05:45:19.807Z,101867.47
2023-04-05T05:47:49.709Z,101881.94
2023-04-05T05:50:20.825Z,101881.69
2023-04-05T05:52:50.781Z,101876.66
2023-04-05T05:55:20.800Z,101827.47
2023-04-05T05:57:53.270Z,101871.56
2023-04-05T06:00:24.137Z,101877.59
2023-04-05T06:02:56.188Z,101891.28
2023-04-05T06:05:29.999Z,101833.13
2023-04-05T06:07:59.997Z,101880.09
2023-04-05T06:10:29.798Z,101876.50
2023-04-05T06:13:02.420Z,101891.94
2023-04-05T06:15:33.061Z,101827.91
2023-04-05T06:18:03.075Z,101890.00
2023-04-05T06:20:32.958Z,101879.72
2023-04-05T06:23:03.276Z,101815.13
2023-04-05T06:25:33.317Z,101812.53
2023-04-05T06:28:06.332Z,101884.97
2023-04-05T06:30:37.154Z,101844.03
2023-04-05T06:33:07.319Z,101821.16
2023-04-05T06:35:37.406Z,101820.94
2023-04-05T06:38:07.421Z,101892.34
2023-04-05T06:40:37.219Z,101861.34
2023-04-05T06:43:10.798Z,101868.53
2023-04-05T06:45:40.606Z,101886.75
2023-04-05T06:48:11.163Z,101893.59
2023-04-05T06:50:41.315Z,101890.19
2023-04-05T06:53:11.792Z,101886.56
2023-04-05T06:55:42.661Z,101868.97
2023-04-05T06:58:15.143Z,101859.75
2023-04-05T07:00:44.953Z,101823.72
2023-04-05T07:03:14.738Z,101868.00
2023-04-05T07:05:44.642Z,101828.16
2023-04-05T07:08:14.341Z,101834.69
2023-04-05T07:10:44.249Z,101857.41
2023-04-05T07:13:17.232Z,101860.75
2023-04-05T07:15:47.317Z,101856.44
2023-04-05T07:18:17.713Z,101805.00
2023-04-05T07:20:50.658Z,101861.72
2023-04-05T07:23:21.844Z,101859.25
2023-04-05T07:25:52.849Z,101842.41
2023-04-05T07:28:25.229Z,101846.81
2023-04-05T07:30:55.146Z,101837.78
2023-04-05T07:33:25.054Z,101851.97
2023-04-05T07:35:57.039Z,101862.75
2023-04-05T07:38:27.215Z,101829.63
2023-04-05T07:40:57.009Z,101830.25
2023-04-05T07:43:29.392Z,101856.16
2023-04-05T07:46:04.989Z,101825.16
2023-04-05T07:48:35.008Z,101858.38
2023-04-05T07:51:08.838Z,101855.47
2023-04-05T07:53:39.870Z,101860.00
2023-04-05T07:56:10.941Z,101800.72
2023-04-05T07:58:43.508Z,101842.56
2023-04-05T08:01:14.161Z,101854.75
2023-04-05T08:03:44.187Z,101850.94
2023-04-05T08:06:17.844Z,101851.50
2023-04-05T08:08:50.125Z,101840.94
2023-04-05T08:11:22.407Z,101854.22
2023-04-05T08:13:54.958Z,101846.84
2023-04-05T08:16:24.758Z,101840.91
2023-04-05T08:18:54.566Z,101858.53
2023-04-05T08:21:26.731Z,101845.88
2023-04-05T08:23:56.489Z,101814.00
2023-04-05T08:26:26.787Z,101851.19
2023-04-05T08:28:59.119Z,101843.69
2023-04-05T08:31:29.537Z,101841.84
2023-04-05T08:33:59.325Z,101849.63
2023-04-05T08:36:29.100Z,101844.66
2023-04-05T08:38:59.777Z,101821.88
2023-04-05T08:41:37.024Z,101832.84
2023-04-05T08:44:13.746Z,101844.47
2023-04-05T08:46:46.964Z,101810.66
2023-04-05T08:49:16.682Z,101841.66
2023-04-05T08:51:46.501Z,101705.56
2023-04-05T08:54:16.295Z,101822.94
2023-04-05T08:56:49.739Z,101848.53
2023-04-05T08:59:24.853Z,101825.19
2023-04-05T09:01:55.339Z,101826.94
2023-04-05T09:04:27.426Z,101819.28
2023-04-05T09:07:00.586Z,101833.44
2023-04-05T09:09:35.716Z,101820.72
2023-04-05T09:12:06.833Z,101811.97
2023-04-05T09:14:40.924Z,101828.31
2023-04-05T09:17:11.217Z,101836.09
2023-04-05T09:19:41.120Z,101825.72
2023-04-05T09:22:11.866Z,101816.91
2023-04-05T09:24:45.611Z,101824.28
2023-04-05T09:27:18.051Z,101821.97
2023-04-05T09:29:54.194Z,101821.78
2023-04-05T09:32:29.561Z,101809.59
2023-04-05T09:35:04.238Z,101809.47
2023-04-05T09:37:35.983Z,101790.41
2023-04-05T09:40:09.915Z,101804.91
2023-04-05T09:42:47.686Z,101785.53
2023-04-05T09:45:22.541Z,101770.78
2023-04-05T09:48:00.425Z,101730.41
2023-04-05T09:50:30.165Z,101799.63
2023-04-05T09:53:10.560Z,101807.91
2023-04-05T09:55:42.683Z,101792.63
2023-04-05T09:58:15.835Z,101811.38
2023-04-05T10:01:06.298Z,101778.13
2023-04-05T10:03:50.258Z,101800.22
2023-04-05T10:06:20.430Z,101813.22
2023-04-05T10:08:50.905Z,101789.25
2023-04-05T10:11:21.604Z,101799.69
2023-04-05T10:13:52.941Z,101785.72
2023-04-05T10:16:29.327Z,101777.19
2023-04-05T10:18:59.203Z,101790.44
2023-04-05T10:21:32.688Z,101788.56
2023-04-05T10:24:11.679Z,101787.25
2023-04-05T10:26:47.521Z,101782.56
2023-04-05T10:29:27.328Z,101775.56
2023-04-05T10:32:10.955Z,101766.81
2023-04-05T10:34:46.185Z,101771.31
2023-04-05T10:37:26.207Z,101757.44
2023-04-05T10:39:58.031Z,101747.06
2023-04-05T10:42:31.196Z,101758.44
2023-04-05T10:45:04.971Z,101754.81
2023-04-05T10:47:45.371Z,101770.97
2023-04-05T10:50:22.994Z,101739.03
2023-04-05T10:52:54.067Z,101771.91
2023-04-05T10:55:24.224Z,101771.03
2023-04-05T10:57:54.649Z,101765.94
2023-04-05T11:00:27.374Z,101747.66
2023-04-05T11:02:59.958Z,101771.31
2023-04-05T11:05:35.060Z,101770.34
2023-04-05T11:08:09.240Z,101728.22
2023-04-05T11:10:40.958Z,101755.69
2023-04-05T11:13:12.600Z,101760.31
2023-04-05T11:15:42.630Z,101765.41
2023-04-05T11:18:24.025Z,101746.38
2023-04-05T11:20:56.370Z,101726.72
2023-04-05T11:23:27.590Z,101741.91
2023-04-05T11:26:00.166Z,101726.84
2023-04-05T11:28:37.881Z,101737.25
2023-04-05T11:31:16.932Z,101747.03
2023-04-05T11:34:10.247Z,101725.09
2023-04-05T11:36:42.217Z,101713.97
2023-04-05T11:39:30.945Z,101725.63
2023-04-05T11:42:05.845Z,101724.34
2023-04-05T11:44:48.188Z,101725.69
2023-04-05T11:47:21.965Z,101719.25
2023-04-05T11:49:55.147Z,101727.69
2023-04-05T11:52:24.906Z,101685.31
2023-04-05T11:54:55.288Z,101714.41
2023-04-05T11:57:26.293Z,101702.56
2023-04-05T11:59:56.915Z,101701.59
2023-04-05T12:02:26.947Z,101713.31
2023-04-05T12:05:01.198Z,101696.22
2023-04-05T12:07:37.158Z,101681.41
2023-04-05T12:10:11.925Z,101700.59
2023-04-05T12:12:48.190Z,101665.09
2023-04-05T12:15:20.094Z,101568.84
2023-04-05T12:17:53.354Z,101687.72
2023-04-05T12:20:27.362Z,101683.97
2023-04-05T12:22:59.035Z,101688.09
2023-04-05T12:25:29.620Z,101646.63
2023-04-05T12:27:59.438Z,101674.13
2023-04-05T12:30:36.592Z,101676.88
2023-04-05T12:33:11.700Z,101681.56
2023-04-05T12:35:44.378Z,101649.31
2023-04-05T12:38:17.824Z,101649.72
2023-04-05T12:40:47.620Z,101674.09
2023-04-05T12:43:22.189Z,101651.97
2023-04-05T12:45:54.629Z,101650.63
2023-04-05T12:48:27.108Z,101633.31
2023-04-05T12:50:59.431Z,101623.84
2023-04-05T12:53:30.145Z,101657.28
2023-04-05T12:56:02.052Z,101638.72
2023-04-05T12:58:38.091Z,101608.16
2023-04-05T13:01:08.233Z,101621.00
2023-04-05T13:03:38.044Z,101613.31
2023-04-05T13:06:11.024Z,101594.38
2023-04-05T13:08:40.736Z,101621.09
2023-04-05T13:11:10.626Z,101618.78
2023-04-05T13:13:40.363Z,101619.66
2023-04-05T13:16:10.614Z,101613.44
2023-04-05T13:18:40.680Z,101608.66
2023-04-05T13:21:13.503Z,101604.88
2023-04-05T13:23:46.751Z,101604.75
2023-04-05T13:26:34.875Z,101616.16
2023-04-05T13:29:05.621Z,101617.81
2023-04-05T13:31:44.213Z,101419.19
2023-04-05T13:34:23.458Z,101628.06
2023-04-05T13:37:06.238Z,101307.03
2023-04-05T13:39:49.171Z,101535.38
2023-04-05T13:42:23.002Z,101389.41
2023-04-05T13:45:00.411Z,101610.59
2023-04-05T13:47:36.551Z,101492.53
2023-04-05T13:50:30.883Z,101416.63
2023-04-05T13:53:06.976Z,101613.56
2023-04-05T13:56:59.701Z,101350.84
2023-04-05T14:11:10.545Z,101457.44
2023-04-05T14:13:40.700Z,101565.84
2023-04-05T14:16:10.941Z,101572.38
2023-04-05T14:18:41.197Z,101545.88
2023-04-05T14:21:11.627Z,101573.38
2023-04-05T14:23:41.965Z,101543.50
2023-04-05T14:26:15.718Z,101496.50
2023-04-05T14:28:46.657Z,101544.53
2023-04-05T14:31:19.450Z,101542.63
2023-04-05T14:33:50.446Z,101560.84
2023-04-05T14:36:21.708Z,101477.59
2023-04-05T14:38:52.154Z,101548.31
2023-04-05T14:41:25.595Z,101469.16
2023-04-05T14:43:58.652Z,101554.75
2023-04-05T14:46:29.065Z,101476.56
2023-04-05T14:48:59.027Z,101533.16
2023-04-05T14:51:29.800Z,101536.66
2023-04-05T14:53:59.685Z,101528.25
2023-04-05T14:56:32.269Z,101543.63
2023-04-05T14:59:02.716Z,101526.19
2023-04-05T15:01:32.651Z,101496.38
2023-04-05T15:04:02.443Z,101517.50
2023-04-05T15:06:32.446Z,101534.00
2023-04-05T15:09:02.400Z,101530.63
2023-04-05T15:11:35.831Z,101534.22
2023-04-05T15:14:05.667Z,101512.97
2023-04-05T15:16:35.643Z,101525.16
2023-04-05T15:19:05.473Z,101522.94
2023-04-05T15:21:35.396Z,101530.75
2023-04-05T15:24:05.159Z,101529.72
2023-04-05T15:26:37.448Z,101522.28
2023-04-05T15:29:07.223Z,101505.00
2023-04-05T15:31:37.308Z,101518.19
2023-04-05T15:34:08.366Z,101524.69
2023-04-05T15:36:38.652Z,101468.44
2023-04-05T15:39:08.453Z,101470.47
2023-04-05T15:41:41.200Z,101512.00
2023-04-05T15:44:11.060Z,101507.19
2023-04-05T15:46:41.042Z,101512.06
2023-04-05T15:49:14.030Z,101497.94
2023-04-05T15:51:45.202Z,101511.88
2023-04-05T15:54:19.013Z,101504.56
2023-04-05T15:56:51.453Z,101507.38
2023-04-05T15:59:21.499Z,101481.97
2023-04-05T16:01:51.347Z,101483.88
2023-04-05T16:04:21.279Z,101502.22
2023-04-05T16:06:51.162Z,101464.63
2023-04-05T16:09:20.945Z,101509.41
2023-04-05T16:11:53.293Z,101494.84
2023-04-05T16:14:23.043Z,101491.44
2023-04-05T16:16:54.282Z,101507.13
2023-04-05T16:19:24.668Z,101486.38
2023-04-05T16:21:54.778Z,101488.06
2023-04-05T16:24:24.541Z,101500.13
2023-04-05T16:26:57.033Z,101488.38
2023-04-05T16:29:27.395Z,101485.97
2023-04-05T16:31:57.247Z,101480.72
2023-04-05T16:34:27.077Z,101501.66
2023-04-05T16:36:56.812Z,101506.75
2023-04-05T16:39:26.680Z,101451.94
2023-04-05T16:41:59.033Z,101486.78
2023-04-05T16:44:31.694Z,101483.94
2023-04-05T16:47:02.019Z,101483.44
2023-04-05T16:49:31.764Z,101495.53
2023-04-05T16:52:01.560Z,101473.66
2023-04-05T16:54:31.685Z,101490.13
2023-04-05T16:57:04.167Z,101451.13
2023-04-05T16:59:33.934Z,101486.81
2023-04-05T17:02:03.766Z,101485.09
2023-04-05T17:04:33.686Z,101481.66
2023-04-05T17:07:03.430Z,101484.53
2023-04-05T17:09:33.416Z,101424.22
2023-04-05T17:12:06.852Z,101461.88
2023-04-05T17:14:36.619Z,101455.75
2023-04-05T17:17:06.353Z,101486.06
2023-04-05T17:19:36.573Z,101429.56
2023-04-05T17:22:06.406Z,101475.88
2023-04-05T17:24:37.062Z,101406.19
2023-04-05T17:27:09.436Z,101479.25
2023-04-05T17:29:39.212Z,101473.59
2023-04-05T17:32:09.689Z,101478.66
2023-04-05T17:34:39.419Z,101470.75
2023-04-05T17:37:09.176Z,101480.88
2023-04-05T17:39:38.944Z,101473.06
2023-04-05T17:42:11.280Z,101466.94
2023-04-05T17:44:41.560Z,101469.88
2023-04-05T17:47:11.318Z,101483.19
2023-04-05T17:49:41.132Z,101479.78
2023-04-05T17:52:12.300Z,101475.25
2023-04-05T17:54:42.247Z,101478.72
2023-04-05T17:57:15.683Z,101479.72
2023-04-05T17:59:45.971Z,101453.41
2023-04-05T18:02:15.846Z,101462.97
2023-04-05T18:04:45.656Z,101485.19
2023-04-05T18:07:15.527Z,101469.69
2023-04-05T18:09:45.287Z,101477.53
2023-04-05T18:12:17.587Z,101475.75
2023-04-05T18:14:47.394Z,101472.97
2023-04-05T18:17:18.068Z,101478.31
2023-04-05T18:19:47.805Z,101478.16
2023-04-05T18:22:17.605Z,101438.78
2023-04-05T18:24:47.392Z,101453.06
2023-04-05T18:27:19.835Z,101482.47
2023-04-05T18:29:49.548Z,101485.59
2023-04-05T18:32:19.478Z,101470.72
2023-04-05T18:34:49.436Z,101485.50
2023-04-05T18:37:19.157Z,101460.94
2023-04-05T18:39:49.070Z,101475.38
2023-04-05T18:42:21.406Z,101456.19
2023-04-05T18:44:51.246Z,101501.66
2023-04-05T18:47:21.120Z,101493.81
2023-04-05T18:49:51.043Z,101486.56
2023-04-05T18:52:23.970Z,101493.28
2023-04-05T18:54:53.751Z,101500.91
2023-04-05T18:57:26.686Z,101511.34
2023-04-05T18:59:56.427Z,101507.47
2023-04-05T19:02:26.304Z,101501.03
2023-04-05T19:04:56.274Z,101485.25
2023-04-05T19:07:26.150Z,101516.81
2023-04-05T19:09:55.980Z,101521.78
2023-04-05T19:12:28.430Z,101360.66
2023-04-05T19:14:58.195Z,101513.91
2023-04-05T19:17:27.941Z,101491.31
2023-04-05T19:19:57.713Z,101523.97
2023-04-05T19:22:27.482Z,101511.41
2023-04-05T19:24:57.245Z,101526.63
2023-04-05T19:27:30.999Z,101518.44
2023-04-05T19:30:00.872Z,101512.13
2023-04-05T19:32:30.609Z,101536.47
2023-04-05T19:35:01.494Z,101521.09
2023-04-05T19:37:31.988Z,101512.19
2023-04-05T19:40:01.732Z,101517.03
2023-04-05T19:42:34.781Z,101462.22
2023-04-05T19:45:04.796Z,101491.50
2023-04-05T19:47:34.593Z,101524.06
2023-04-05T19:50:04.384Z,101517.47
2023-04-05T19:52:38.685Z,101521.22
2023-04-05T19:55:29.886Z,101525.44
2023-04-05T19:58:03.426Z,101505.84
2023-04-05T20:00:38.880Z,101529.75
2023-04-05T20:03:30.503Z,101538.34
2023-04-05T20:06:14.958Z,101531.94
2023-04-05T20:08:46.709Z,101534.81
2023-04-05T20:11:18.281Z,101529.75
2023-04-05T20:13:52.468Z,101476.88
2023-04-05T20:16:28.462Z,101492.53
2023-04-05T20:19:01.039Z,101534.84
2023-04-05T20:21:31.220Z,101533.44
2023-04-05T20:24:01.423Z,101515.47
2023-04-05T20:26:33.641Z,101524.50
2023-04-05T20:29:10.197Z,101510.50
2023-04-05T20:31:40.582Z,101506.16
2023-04-05T20:34:14.351Z,101506.75
2023-04-05T20:36:50.315Z,101517.22
2023-04-05T20:39:20.210Z,101517.44
2023-04-05T20:41:50.036Z,101516.97
2023-04-05T20:44:22.690Z,101472.00
2023-04-05T20:46:54.061Z,101450.44
2023-04-05T20:49:24.325Z,101518.84
2023-04-05T20:51:55.018Z,101506.16
2023-04-05T20:54:24.773Z,101485.19
2023-04-05T20:56:54.559Z,101502.06
2023-04-05T20:59:27.520Z,101500.09
2023-04-05T21:01:57.509Z,101506.91
2023-04-05T21:04:29.531Z,101505.16
2023-04-05T21:06:59.903Z,101478.00
2023-04-05T21:09:30.268Z,101499.59
2023-04-05T21:12:00.630Z,101466.00
2023-04-05T21:14:33.059Z,101471.06
2023-04-05T21:17:03.613Z,101501.38
2023-04-05T21:19:34.392Z,101484.06
2023-04-05T21:22:04.191Z,101483.97
2023-04-05T21:24:34.072Z,101455.72
2023-04-05T21:27:04.052Z,101479.97
2023-04-05T21:29:36.400Z,101478.22
2023-04-05T21:32:06.415Z,101426.25
2023-04-05T21:34:36.291Z,101446.72
2023-04-05T21:37:06.074Z,101455.78
2023-04-05T21:39:35.930Z,101494.91
2023-04-05T21:42:05.812Z,101468.88
2023-04-05T21:44:38.142Z,101460.47
2023-04-05T21:47:08.117Z,101482.19
2023-04-05T21:49:37.987Z,101492.03
2023-04-05T21:52:08.040Z,101432.63
2023-04-05T21:54:37.867Z,101482.97
2023-04-05T21:57:07.648Z,101487.59
2023-04-05T21:59:40.072Z,101463.63
2023-04-05T22:02:12.350Z,101461.00
2023-04-05T22:04:42.235Z,101490.44
2023-04-05T22:07:12.491Z,101487.03
2023-04-05T22:09:42.321Z,101463.03
2023-04-05T22:12:12.087Z,101458.22
2023-04-05T22:14:44.479Z,101457.88
2023-04-05T22:17:14.244Z,101420.94
2023-04-05T22:19:44.261Z,101435.72
2023-04-05T22:22:15.129Z,101493.00
2023-04-05T22:24:45.548Z,101464.22
2023-04-05T22:27:15.550Z,101483.81
2023-04-05T22:29:49.091Z,101483.31
2023-04-05T22:32:18.870Z,101473.03
2023-04-05T22:34:48.888Z,101443.28
2023-04-05T22:37:18.665Z,101441.75
2023-04-05T22:39:48.445Z,101482.63
2023-04-05T22:42:18.260Z,101412.56
2023-04-05T22:44:50.795Z,101457.25
2023-04-05T22:47:21.459Z,101462.63
2023-04-05T22:49:52.078Z,101431.94
2023-04-05T22:52:21.884Z,101444.41
2023-04-05T22:54:51.750Z,101447.28
2023-04-05T22:57:21.553Z,101454.63
2023-04-05T22:59:53.883Z,101461.16
2023-04-05T23:02:24.739Z,101455.91
2023-04-05T23:04:54.556Z,101434.66
2023-04-05T23:07:24.481Z,101451.88
2023-04-05T23:09:54.270Z,101443.78
2023-04-05T23:12:24.026Z,101410.22
2023-04-05T23:14:58.296Z,101427.63
2023-04-05T23:17:28.235Z,101288.56
2023-04-05T23:19:58.020Z,101449.78
2023-04-05T23:22:27.812Z,101430.13
2023-04-05T23:25:00.798Z,101446.22
2023-04-05T23:27:30.882Z,101413.09
2023-04-05T23:30:03.354Z,101390.34
2023-04-05T23:32:33.171Z,101436.25
2023-04-05T23:35:02.938Z,101429.81
2023-04-05T23:37:32.697Z,101425.69
2023-04-05T23:40:02.441Z,101416.97
2023-04-05T23:42:32.567Z,101260.53
2023-04-05T23:45:09.004Z,101436.50
2023-04-05T23:47:40.132Z,101389.56
2023-04-05T23:50:11.895Z,101402.72
2023-04-05T23:52:41.667Z,101361.56
2023-04-05T23:55:12.124Z,101405.78
2023-04-05T23:57:41.895Z,101413.97
